Time;durP1;ratioP1;P1;durP2;ratioP2;P2;SDS_P1;SDS_P2;PMS_P1;PMS_P2;Temp;Humidity;BMP_temperature;BMP_pressure;BME280_temperature;BME280_humidity;BME280_pressure;Samples;Min_cycle;Max_cycle;Signal;HPM_P1;HPM_P2
2022/08/07 00:00:33;;;;;;;4.70;2.67;;;10.90;99.90;;;;;;5032972;28;20037;-65
2022/08/07 00:02:59;;;;;;;4.35;3.38;;;10.80;99.90;;;;;;5055347;28;20044;-65
2022/08/07 00:05:26;;;;;;;3.35;2.95;;;10.70;99.90;;;;;;5039012;28;20037;-65
2022/08/07 00:07:53;;;;;;;3.75;2.90;;;10.60;99.90;;;;;;5038966;28;20084;-65
2022/08/07 00:10:19;;;;;;;6.20;4.18;;;10.70;99.90;;;;;;5045495;28;20086;-65
2022/08/07 00:12:45;;;;;;;6.38;4.55;;;10.70;99.90;;;;;;5044590;28;20044;-65
2022/08/07 00:15:11;;;;;;;4.70;3.60;;;10.60;99.90;;;;;;5062492;28;20048;-65
2022/08/07 00:17:36;;;;;;;5.05;3.30;;;10.70;99.90;;;;;;5044927;28;20037;-65
2022/08/07 00:20:04;;;;;;;3.20;2.40;;;10.70;99.90;;;;;;5045273;28;20037;-65
2022/08/07 00:22:29;;;;;;;4.57;2.55;;;10.70;99.90;;;;;;5045962;28;20041;-64
2022/08/07 00:24:55;;;;;;;3.33;2.30;;;10.50;99.90;;;;;;5029149;28;20059;-65
2022/08/07 00:27:21;;;;;;;7.00;4.32;;;10.40;99.90;;;;;;5028306;28;20408;-65
2022/08/07 00:29:46;;;;;;;6.07;4.50;;;10.40;99.90;;;;;;5048038;28;20044;-65
2022/08/07 00:32:12;;;;;;;6.28;4.50;;;10.50;99.90;;;;;;5044629;28;20741;-64
2022/08/07 00:34:38;;;;;;;4.57;3.30;;;10.50;99.90;;;;;;5049593;28;20048;-65
2022/08/07 00:37:04;;;;;;;5.40;4.10;;;10.40;99.90;;;;;;5063706;28;20475;-64
2022/08/07 00:39:30;;;;;;;4.50;2.67;;;10.40;99.90;;;;;;5063751;28;20044;-64
2022/08/07 00:41:58;;;;;;;4.65;3.20;;;10.30;99.90;;;;;;5060491;28;20091;-64
2022/08/07 00:44:25;;;;;;;2.45;1.80;;;10.30;99.90;;;;;;5063481;28;20163;-64
2022/08/07 00:46:52;;;;;;;2.45;2.05;;;10.20;99.90;;;;;;5047263;28;20537;-64
2022/08/07 00:49:18;;;;;;;2.53;1.70;;;10.10;99.90;;;;;;5047299;28;20073;-64
2022/08/07 00:51:44;;;;;;;2.78;2.20;;;10.10;99.90;;;;;;5052242;28;20067;-64
2022/08/07 00:54:10;;;;;;;3.95;2.88;;;10.10;99.90;;;;;;5049339;28;20038;-64
2022/08/07 00:56:36;;;;;;;4.47;3.50;;;10.10;99.90;;;;;;5048508;28;20037;-64
2022/08/07 00:59:02;;;;;;;4.60;3.67;;;10.10;99.90;;;;;;5047404;28;20044;-64
2022/08/07 01:01:28;;;;;;;3.92;2.40;;;10.10;99.90;;;;;;5032019;28;20037;-64
2022/08/07 01:03:54;;;;;;;2.42;1.80;;;10.10;99.90;;;;;;5048843;28;20037;-64
2022/08/07 01:06:20;;;;;;;2.42;1.50;;;10.00;99.90;;;;;;5044682;28;20465;-64
2022/08/07 01:08:46;;;;;;;1.48;1.33;;;10.00;99.90;;;;;;5047868;28;20498;-64
2022/08/07 01:11:13;;;;;;;5.05;3.55;;;10.00;99.90;;;;;;5039492;28;20042;-64
2022/08/07 01:13:39;;;;;;;8.05;5.13;;;9.90;99.90;;;;;;5044104;28;20098;-64
2022/08/07 01:16:08;;;;;;;10.43;4.55;;;10.00;99.90;;;;;;5046205;28;20709;-64
2022/08/07 01:18:34;;;;;;;6.53;3.90;;;10.00;99.90;;;;;;5043244;28;20120;-64
2022/08/07 01:21:09;;;;;;;9.27;4.75;;;10.10;99.90;;;;;;5043405;28;20072;-63
2022/08/07 01:23:35;;;;;;;6.78;4.25;;;10.10;99.90;;;;;;5045538;28;20080;-64
2022/08/07 01:26:02;;;;;;;7.60;4.90;;;10.10;99.90;;;;;;5047048;28;20044;-64
2022/08/07 01:28:28;;;;;;;10.00;5.95;;;10.00;99.90;;;;;;5046819;28;20036;-64
2022/08/07 01:30:55;;;;;;;8.45;5.15;;;9.90;99.90;;;;;;5047556;28;20048;-63
2022/08/07 01:33:22;;;;;;;9.75;5.75;;;10.00;99.90;;;;;;5040300;28;20391;-64
2022/08/07 01:35:48;;;;;;;10.88;6.80;;;9.90;99.90;;;;;;5042642;28;20380;-64
2022/08/07 01:38:13;;;;;;;9.88;5.50;;;9.90;99.90;;;;;;5042266;28;20328;-65
2022/08/07 01:40:39;;;;;;;7.65;5.03;;;9.90;99.90;;;;;;5038438;28;20036;-64
2022/08/07 01:43:05;;;;;;;7.80;5.35;;;9.80;99.90;;;;;;5037451;28;20120;-64
2022/08/07 01:45:32;;;;;;;6.95;4.80;;;9.70;99.90;;;;;;5038336;28;20057;-64
2022/08/07 01:47:58;;;;;;;7.70;4.93;;;9.70;99.90;;;;;;5037964;28;20040;-64
2022/08/07 01:50:25;;;;;;;10.32;5.88;;;9.70;99.90;;;;;;5034114;28;20392;-64
2022/08/07 01:52:55;;;;;;;8.55;5.13;;;9.70;99.90;;;;;;5036757;28;20159;-64
2022/08/07 01:55:27;;;;;;;6.63;4.30;;;9.70;99.90;;;;;;5033829;28;20049;-64
2022/08/07 01:57:56;;;;;;;7.32;4.43;;;9.70;99.90;;;;;;5054627;28;20041;-64
2022/08/07 02:00:26;;;;;;;6.65;4.57;;;9.60;99.90;;;;;;5030876;28;20116;-64
2022/08/07 02:02:57;;;;;;;6.22;4.10;;;9.60;99.90;;;;;;5052170;28;20041;-64
2022/08/07 02:05:30;;;;;;;7.07;4.43;;;9.60;99.90;;;;;;5054578;28;20044;-64
2022/08/07 02:07:59;;;;;;;8.50;4.50;;;9.60;99.90;;;;;;5037192;28;20044;-64
2022/08/07 02:10:26;;;;;;;6.95;4.60;;;9.60;99.90;;;;;;5036364;28;20071;-64
2022/08/07 02:12:55;;;;;;;7.07;3.33;;;9.70;99.90;;;;;;5039299;28;20045;-64
2022/08/07 02:15:23;;;;;;;4.43;3.10;;;9.60;99.90;;;;;;5037842;28;20143;-64
2022/08/07 02:17:50;;;;;;;5.47;3.83;;;9.70;99.90;;;;;;5038119;28;20492;-64
2022/08/07 02:20:17;;;;;;;6.45;3.88;;;9.70;99.90;;;;;;5031572;28;20429;-64
2022/08/07 02:22:45;;;;;;;9.63;4.85;;;9.70;99.90;;;;;;5036269;28;20396;-64
2022/08/07 02:25:12;;;;;;;8.73;4.55;;;9.60;99.90;;;;;;5049797;28;20365;-64
2022/08/07 02:27:39;;;;;;;4.93;3.58;;;9.60;99.90;;;;;;5035223;28;20041;-64
2022/08/07 02:30:05;;;;;;;6.82;4.30;;;9.60;99.90;;;;;;5032364;28;20045;-64
2022/08/07 02:32:34;;;;;;;5.65;3.58;;;9.60;99.90;;;;;;5036396;28;20029;-64
2022/08/07 02:35:03;;;;;;;5.20;3.60;;;9.50;99.90;;;;;;5024926;28;20480;-64
2022/08/07 02:37:30;;;;;;;5.45;3.00;;;9.50;99.90;;;;;;5037523;28;20124;-64
2022/08/07 02:39:58;;;;;;;6.40;4.05;;;9.30;99.90;;;;;;5061762;28;20078;-64
2022/08/07 02:42:23;;;;;;;7.28;3.63;;;9.30;99.90;;;;;;5045195;28;20102;-64
2022/08/07 02:44:51;;;;;;;3.92;2.90;;;9.40;99.90;;;;;;5053894;28;20036;-64
2022/08/07 02:47:17;;;;;;;5.97;4.20;;;9.40;99.90;;;;;;5043010;28;20498;-65
2022/08/07 02:49:43;;;;;;;7.07;4.88;;;9.30;99.90;;;;;;5059771;28;20037;-64
2022/08/07 02:52:16;;;;;;;7.68;5.07;;;9.40;99.90;;;;;;5061604;28;20040;-64
2022/08/07 02:54:42;;;;;;;;;;;9.30;99.90;;;;;;5042377;28;20091;-64
2022/08/07 02:57:14;;;;;;;7.75;4.82;;;9.40;99.90;;;;;;5044247;28;19917;-64
2022/08/07 02:59:47;;;;;;;3.28;2.67;;;9.40;99.90;;;;;;5049951;28;20061;-65
2022/08/07 03:02:14;;;;;;;4.93;3.22;;;9.50;99.90;;;;;;5051888;28;20040;-64
2022/08/07 03:04:45;;;;;;;5.10;3.33;;;9.40;99.90;;;;;;5041993;28;20117;-64
2022/08/07 03:07:11;;;;;;;4.93;3.60;;;9.50;99.90;;;;;;5048925;28;20635;-64
2022/08/07 03:09:38;;;;;;;7.93;5.40;;;9.40;99.90;;;;;;5035083;28;20071;-65
2022/08/07 03:12:05;;;;;;;8.20;5.82;;;9.40;99.90;;;;;;5054544;28;20040;-64
2022/08/07 03:14:33;;;;;;;5.93;3.72;;;9.40;99.90;;;;;;5039309;28;20056;-64
2022/08/07 03:16:58;;;;;;;8.20;5.07;;;9.40;99.90;;;;;;5034246;28;20511;-64
2022/08/07 03:19:25;;;;;;;5.00;3.83;;;9.30;99.90;;;;;;5039542;28;20068;-64
2022/08/07 03:21:51;;;;;;;4.63;3.40;;;9.30;99.90;;;;;;5040022;28;20045;-64
2022/08/07 03:24:17;;;;;;;6.55;4.70;;;9.20;99.90;;;;;;5037777;28;20041;-64
2022/08/07 03:26:45;;;;;;;8.13;5.20;;;9.10;99.90;;;;;;5044761;28;20039;-65
2022/08/07 03:29:12;;;;;;;10.23;4.70;;;9.10;99.90;;;;;;5042139;28;20032;-65
2022/08/07 03:31:40;;;;;;;5.22;3.70;;;9.20;99.90;;;;;;5036530;28;20072;-65
2022/08/07 03:34:07;;;;;;;5.88;3.90;;;9.20;99.90;;;;;;5038502;28;20037;-64
2022/08/07 03:36:34;;;;;;;5.28;3.58;;;9.30;99.90;;;;;;5036538;28;20518;-64
2022/08/07 03:39:07;;;;;;;6.25;4.75;;;9.30;99.90;;;;;;5057218;28;20118;-64
2022/08/07 03:41:33;;;;;;;11.35;5.80;;;9.30;99.90;;;;;;5043646;28;20056;-64
2022/08/07 03:43:59;;;;;;;9.75;4.55;;;9.30;99.90;;;;;;5044334;28;20044;-64
2022/08/07 03:46:25;;;;;;;6.90;4.45;;;9.20;99.90;;;;;;5044778;28;20085;-64
2022/08/07 03:48:52;;;;;;;9.35;4.97;;;9.20;99.90;;;;;;5045875;28;20052;-64
2022/08/07 03:51:19;;;;;;;13.27;6.70;;;9.10;99.90;;;;;;5045492;28;20616;-64
2022/08/07 03:53:45;;;;;;;9.45;5.80;;;9.10;99.90;;;;;;5045674;28;20052;-65
2022/08/07 03:56:16;;;;;;;10.20;6.00;;;9.10;99.90;;;;;;5060027;28;20049;-64
2022/08/07 03:58:42;;;;;;;6.40;3.78;;;9.10;99.90;;;;;;5045270;28;20045;-64
2022/08/07 04:01:12;;;;;;;4.32;2.97;;;9.20;99.90;;;;;;5043805;28;20044;-64
2022/08/07 04:03:38;;;;;;;6.22;3.70;;;9.30;99.90;;;;;;5044357;28;20048;-64
2022/08/07 04:06:08;;;;;;;5.50;3.97;;;9.20;99.90;;;;;;5044779;28;20069;-65
2022/08/07 04:08:34;;;;;;;8.93;5.63;;;9.30;99.90;;;;;;5042455;28;20480;-65
2022/08/07 04:11:00;;;;;;;9.65;6.28;;;9.30;99.90;;;;;;5038632;28;20044;-64
2022/08/07 04:13:26;;;;;;;8.40;5.75;;;9.30;99.90;;;;;;5039843;28;20037;-65
2022/08/07 04:15:51;;;;;;;10.52;6.50;;;9.40;99.90;;;;;;5054605;28;20049;-64
2022/08/07 04:18:17;;;;;;;10.45;5.57;;;9.30;99.90;;;;;;5031986;28;20089;-64
2022/08/07 04:20:43;;;;;;;7.28;4.70;;;9.40;99.90;;;;;;5041170;28;20049;-64
2022/08/07 04:23:09;;;;;;;3.60;2.70;;;9.40;99.90;;;;;;5036326;28;20036;-64
2022/08/07 04:25:37;;;;;;;10.02;4.43;;;9.30;99.90;;;;;;5035829;28;20033;-64
2022/08/07 04:28:05;;;;;;;6.18;4.10;;;9.20;99.90;;;;;;5033852;28;20036;-64
2022/08/07 04:30:32;;;;;;;5.43;3.95;;;9.00;99.90;;;;;;5035723;28;20037;-64
2022/08/07 04:32:58;;;;;;;7.35;4.85;;;9.00;99.90;;;;;;5023589;28;20435;-64
2022/08/07 04:35:24;;;;;;;8.80;5.30;;;9.00;99.90;;;;;;5029272;28;21098;-64
2022/08/07 04:37:49;;;;;;;11.25;6.28;;;9.00;99.90;;;;;;5049696;28;20037;-63
2022/08/07 04:40:16;;;;;;;12.80;6.72;;;9.00;99.90;;;;;;5034619;28;20512;-64
2022/08/07 04:42:41;;;;;;;13.20;6.95;;;9.00;99.90;;;;;;5041572;28;20049;-64
2022/08/07 04:45:10;;;;;;;9.43;6.28;;;9.10;99.90;;;;;;5040529;28;21740;-64
2022/08/07 04:48:03;;;;;;;12.35;4.47;;;9.10;99.90;;;;;;5038499;28;20063;-64
2022/08/07 04:50:55;;;;;;;6.47;4.20;;;9.20;99.90;;;;;;5035722;28;20127;-65
2022/08/07 04:53:32;;;;;;;7.47;5.20;;;9.30;99.90;;;;;;5035697;28;20122;-64
2022/08/07 04:56:11;;;;;;;12.18;6.88;;;9.30;99.90;;;;;;5052183;28;20443;-64
2022/08/07 04:58:59;;;;;;;11.63;6.75;;;9.50;99.90;;;;;;5034287;28;20048;-64
2022/08/07 05:01:47;;;;;;;9.45;5.35;;;9.50;99.90;;;;;;5037631;28;20045;-64
2022/08/07 05:04:20;;;;;;;11.43;5.25;;;9.60;99.90;;;;;;5033881;28;20040;-64
2022/08/07 05:06:52;;;;;;;;;;;9.70;99.90;;;;;;5036138;28;20037;-64
2022/08/07 05:09:31;;;;;;;12.25;4.75;;;9.70;99.90;;;;;;5037251;28;20271;-64
2022/08/07 05:12:03;;;;;;;7.40;4.50;;;9.70;99.90;;;;;;5036930;28;20045;-64
2022/08/07 05:14:41;;;;;;;9.15;5.20;;;9.70;99.90;;;;;;5036314;28;20059;-64
2022/08/07 05:17:10;;;;;;;8.45;5.22;;;9.70;99.90;;;;;;5038662;28;20045;-64
2022/08/07 05:19:50;;;;;;;11.77;5.88;;;9.70;99.90;;;;;;5037820;28;20071;-64
2022/08/07 05:22:20;;;;;;;13.07;6.85;;;9.80;99.90;;;;;;5055654;28;20128;-65
2022/08/07 05:24:47;;;;;;;12.95;6.20;;;9.90;99.90;;;;;;5042816;28;20140;-65
2022/08/07 05:27:15;;;;;;;11.52;5.88;;;10.00;99.90;;;;;;5038902;28;20030;-64
2022/08/07 05:29:42;;;;;;;10.93;6.50;;;10.00;99.90;;;;;;5040501;28;20295;-64
2022/08/07 05:32:11;;;;;;;12.73;6.78;;;10.20;99.90;;;;;;5041348;28;20045;-64
2022/08/07 05:34:39;;;;;;;13.50;6.50;;;10.20;99.90;;;;;;5055209;28;20049;-65
2022/08/07 05:37:06;;;;;;;10.13;6.20;;;10.40;99.90;;;;;;5050430;28;20032;-65
2022/08/07 05:39:33;;;;;;;13.77;6.72;;;10.50;99.90;;;;;;5041741;28;20434;-65
2022/08/07 05:41:59;;;;;;;14.52;7.25;;;10.70;99.90;;;;;;5039481;28;20045;-65
2022/08/07 05:44:25;;;;;;;16.90;7.72;;;10.80;99.90;;;;;;5055904;28;20033;-65
2022/08/07 05:46:51;;;;;;;12.50;7.30;;;10.80;99.90;;;;;;5027453;28;20076;-65
2022/08/07 05:49:18;;;;;;;14.13;6.65;;;11.00;99.90;;;;;;5049329;28;20480;-65
2022/08/07 05:51:45;;;;;;;13.98;7.22;;;11.10;99.90;;;;;;5058746;28;20383;-65
2022/08/07 05:54:11;;;;;;;11.90;7.25;;;11.30;99.90;;;;;;5046734;28;20101;-65
2022/08/07 05:56:39;;;;;;;17.33;8.10;;;11.40;99.90;;;;;;5045130;28;20036;-65
2022/08/07 05:59:08;;;;;;;13.60;7.55;;;11.60;99.90;;;;;;5044234;28;20043;-65
2022/08/07 06:01:37;;;;;;;16.60;8.35;;;11.60;99.90;;;;;;5047269;28;20476;-65
2022/08/07 06:04:04;;;;;;;16.70;7.95;;;11.80;99.90;;;;;;5046754;28;20090;-65
2022/08/07 06:06:32;;;;;;;15.63;8.48;;;12.00;99.90;;;;;;5043452;28;20426;-65
2022/08/07 06:08:58;;;;;;;18.60;9.10;;;12.10;99.90;;;;;;5043597;28;20029;-65
2022/08/07 06:11:24;;;;;;;16.00;8.73;;;12.30;99.90;;;;;;5039174;28;20033;-65
2022/08/07 06:13:50;;;;;;;14.07;8.73;;;12.40;99.90;;;;;;5058363;28;20187;-66
2022/08/07 06:16:18;;;;;;;15.13;9.27;;;12.60;99.90;;;;;;5051048;28;20063;-66
2022/08/07 06:18:45;;;;;;;17.98;9.68;;;12.70;99.90;;;;;;5047934;28;20116;-66
2022/08/07 06:21:11;;;;;;;19.77;9.93;;;13.00;99.90;;;;;;5046968;28;20102;-66
2022/08/07 06:23:38;;;;;;;21.58;11.27;;;13.10;99.90;;;;;;5047898;28;20069;-66
2022/08/07 06:26:05;;;;;;;21.27;12.40;;;13.20;99.90;;;;;;5066520;28;20068;-66
2022/08/07 06:28:30;;;;;;;20.83;11.52;;;13.50;99.90;;;;;;5051602;28;20028;-66
2022/08/07 06:30:56;;;;;;;20.35;12.30;;;13.70;99.90;;;;;;5037906;28;20052;-66
2022/08/07 06:33:23;;;;;;;25.27;13.20;;;13.80;99.90;;;;;;5050019;28;20119;-66
2022/08/07 06:35:49;;;;;;;23.77;13.23;;;14.00;99.90;;;;;;5066540;28;20051;-66
2022/08/07 06:38:14;;;;;;;30.50;14.52;;;14.20;99.90;;;;;;5048309;28;20032;-67
2022/08/07 06:40:45;;;;;;;27.35;14.80;;;14.30;99.90;;;;;;5050722;28;20392;-66
2022/08/07 06:43:12;;;;;;;28.55;15.55;;;14.50;99.90;;;;;;5050301;28;20106;-67
2022/08/07 06:45:38;;;;;;;28.10;15.45;;;14.80;99.90;;;;;;5029936;28;20079;-67
2022/08/07 06:48:05;;;;;;;27.70;15.18;;;14.90;99.90;;;;;;5044795;28;20032;-67
2022/08/07 06:50:33;;;;;;;25.02;14.48;;;15.10;99.90;;;;;;5030026;28;20076;-67
2022/08/07 06:53:00;;;;;;;27.48;15.45;;;15.20;99.90;;;;;;5028558;28;20048;-68
2022/08/07 06:55:29;;;;;;;24.40;14.68;;;15.40;99.90;;;;;;5041925;28;20082;-67
2022/08/07 06:58:05;;;;;;;31.67;15.85;;;15.50;99.90;;;;;;5045621;28;20037;-67
2022/08/07 07:00:35;;;;;;;29.48;15.45;;;15.70;99.90;;;;;;5048499;28;20555;-66
2022/08/07 07:03:02;;;;;;;27.60;15.05;;;15.80;99.90;;;;;;5049810;28;20419;-67
2022/08/07 07:05:28;;;;;;;27.48;15.18;;;15.80;99.90;;;;;;5044154;28;20033;-67
2022/08/07 07:07:53;;;;;;;25.42;14.20;;;16.00;99.90;;;;;;5039520;28;20053;-67
2022/08/07 07:10:32;;;;;;;23.05;14.27;;;16.10;99.90;;;;;;5045063;28;20049;-67
2022/08/07 07:13:24;;;;;;;24.67;14.13;;;16.30;99.90;;;;;;5045580;28;20317;-67
2022/08/07 07:15:59;;;;;;;22.58;13.45;;;16.40;99.90;;;;;;5036051;28;20079;-67
2022/08/07 07:18:39;;;;;;;22.45;13.35;;;16.50;99.90;;;;;;5038790;28;20043;-68
2022/08/07 07:21:28;;;;;;;18.50;11.13;;;16.60;99.90;;;;;;5040891;28;20065;-68
2022/08/07 07:23:55;;;;;;;20.08;10.70;;;16.70;99.90;;;;;;5043158;28;20515;-66
2022/08/07 07:26:22;;;;;;;16.85;11.05;;;16.80;99.90;;;;;;5042238;28;20691;-66
2022/08/07 07:28:51;;;;;;;18.05;9.45;;;17.00;99.90;;;;;;5044332;28;20090;-66
2022/08/07 07:31:30;;;;;;;15.70;9.10;;;17.20;99.90;;;;;;5045984;28;20047;-68
2022/08/07 07:34:02;;;;;;;18.40;9.85;;;17.30;99.90;;;;;;5044139;28;20472;-68
2022/08/07 07:36:30;;;;;;;9.50;6.55;;;17.40;99.90;;;;;;5044857;28;20396;-68
2022/08/07 07:38:59;;;;;;;8.40;5.97;;;17.60;99.90;;;;;;5061251;28;20044;-68
2022/08/07 07:41:26;;;;;;;8.73;6.40;;;17.70;99.90;;;;;;5043436;28;20045;-69
2022/08/07 07:43:54;;;;;;;10.38;7.05;;;17.70;99.90;;;;;;5043790;28;20136;-68
2022/08/07 07:46:22;;;;;;;9.82;5.95;;;17.80;99.90;;;;;;5042576;28;20063;-69
2022/08/07 07:48:50;;;;;;;11.48;5.30;;;17.90;99.90;;;;;;5045001;28;20395;-69
2022/08/07 07:51:18;;;;;;;10.05;5.45;;;17.90;99.90;;;;;;5044371;28;20408;-69
2022/08/07 07:53:46;;;;;;;6.72;4.57;;;18.00;99.90;;;;;;5059482;28;20034;-69
2022/08/07 07:56:13;;;;;;;4.43;3.33;;;18.10;99.90;;;;;;5043895;28;20040;-69
2022/08/07 07:58:40;;;;;;;3.50;2.10;;;18.10;99.90;;;;;;5025099;28;20450;-70
2022/08/07 08:01:10;;;;;;;4.82;3.00;;;18.20;99.90;;;;;;5041434;28;20063;-70
2022/08/07 08:03:38;;;;;;;4.65;3.08;;;18.30;99.90;;;;;;5048821;28;20187;-68
2022/08/07 08:06:05;;;;;;;5.45;3.80;;;18.40;99.90;;;;;;5040481;28;20402;-70
2022/08/07 08:08:34;;;;;;;6.63;3.60;;;18.40;99.90;;;;;;5039176;28;20408;-69
2022/08/07 08:11:00;;;;;;;7.53;3.60;;;18.50;99.90;;;;;;5042555;28;20086;-69
2022/08/07 08:13:27;;;;;;;6.90;3.90;;;18.50;99.90;;;;;;5044169;28;20048;-69
2022/08/07 08:15:55;;;;;;;78.63;5.63;;;18.50;99.90;;;;;;5042367;28;20041;-69
2022/08/07 08:18:23;;;;;;;90.68;6.90;;;18.50;99.90;;;;;;5041471;28;20048;-69
2022/08/07 08:20:49;;;;;;;11.27;3.97;;;18.60;99.90;;;;;;5043520;28;20771;-70
2022/08/07 08:28:52;;;;;;;7.75;4.28;;;18.50;99.90;;;;;;5043347;28;20044;-71
2022/08/07 08:31:23;;;;;;;11.00;3.92;;;18.60;99.90;;;;;;5040126;28;20037;-70
2022/08/07 08:33:53;;;;;;;8.13;4.10;;;18.70;99.90;;;;;;5043792;28;20067;-70
2022/08/07 08:36:22;;;;;;;6.05;3.85;;;18.80;99.90;;;;;;5041316;28;20964;-67
2022/08/07 08:38:48;;;;;;;38.92;5.13;;;18.90;99.90;;;;;;5058644;28;20051;-68
2022/08/07 08:41:46;;;;;;;6.57;4.30;;;19.00;99.90;;;;;;5045053;28;20055;-69
2022/08/07 08:44:40;;;;;;;6.22;4.20;;;19.00;99.90;;;;;;5045292;28;20067;-69
2022/08/07 08:47:28;;;;;;;6.30;4.03;;;19.10;99.90;;;;;;5053110;28;20046;-70
2022/08/07 08:50:13;;;;;;;7.72;4.00;;;19.10;99.90;;;;;;5021478;28;20033;-71
2022/08/07 08:52:52;;;;;;;6.30;3.03;;;19.10;99.90;;;;;;5051075;28;20110;-70
2022/08/07 08:55:53;;;;;;;6.78;3.00;;;19.10;99.90;;;;;;5039621;28;20064;-71
2022/08/07 08:58:32;;;;;;;7.03;2.90;;;19.20;99.90;;;;;;5042389;28;20047;-69
2022/08/07 09:01:13;;;;;;;6.93;3.30;;;19.20;99.90;;;;;;5040591;28;20033;-69
2022/08/07 09:03:51;;;;;;;5.68;3.00;;;19.20;99.90;;;;;;5038442;28;20122;-69
2022/08/07 09:06:28;;;;;;;6.80;3.20;;;19.30;99.90;;;;;;5044850;28;20467;-70
2022/08/07 09:08:59;;;;;;;9.93;3.40;;;19.40;99.90;;;;;;5048498;28;20481;-69
2022/08/07 09:11:35;;;;;;;6.38;3.78;;;19.40;99.90;;;;;;5046687;28;20480;-70
2022/08/07 09:14:44;;;;;;;6.05;3.67;;;19.40;99.90;;;;;;5048469;28;20802;-68
2022/08/07 09:17:37;;;;;;;5.85;3.38;;;19.50;99.90;;;;;;5005918;28;20045;-67
2022/08/07 09:20:28;;;;;;;6.13;3.53;;;19.50;99.90;;;;;;5047026;28;20492;-66
2022/08/07 09:23:30;;;;;;;4.55;3.13;;;19.50;99.90;;;;;;5045304;28;20056;-67
2022/08/07 09:26:26;;;;;;;4.60;3.80;;;19.60;99.90;;;;;;5046187;28;20545;-67
2022/08/07 09:29:04;;;;;;;4.25;3.20;;;19.70;99.90;;;;;;5049130;28;20041;-68
2022/08/07 09:31:48;;;;;;;6.72;3.80;;;19.70;99.90;;;;;;5063519;28;20056;-69
2022/08/07 09:34:21;;;;;;;5.43;3.40;;;19.70;99.90;;;;;;5046433;28;20558;-68
2022/08/07 09:37:14;;;;;;;4.90;3.20;;;19.80;99.90;;;;;;5042344;28;20152;-68
2022/08/07 09:39:53;;;;;;;4.57;3.45;;;19.90;99.90;;;;;;5061328;28;20044;-67
2022/08/07 09:42:48;;;;;;;5.45;3.80;;;20.00;99.90;;;;;;5048710;28;20053;-68
2022/08/07 09:45:25;;;;;;;5.35;3.55;;;19.90;99.90;;;;;;5057679;28;20245;-68
2022/08/07 09:48:12;;;;;;;6.22;3.58;;;19.80;99.90;;;;;;5046045;28;20076;-68
2022/08/07 09:50:46;;;;;;;6.47;3.33;;;19.70;99.90;;;;;;5051542;28;20045;-69
2022/08/07 09:53:14;;;;;;;5.50;3.40;;;19.80;99.90;;;;;;5045853;28;20041;-67
2022/08/07 09:56:17;;;;;;;8.13;3.30;;;19.90;99.90;;;;;;5047926;28;20041;-66
2022/08/07 09:59:02;;;;;;;5.43;3.72;;;19.90;99.90;;;;;;5031922;28;20460;-67
2022/08/07 10:01:33;;;;;;;6.60;3.35;;;19.90;99.90;;;;;;5064481;28;20051;-67
2022/08/07 10:04:09;;;;;;;5.40;3.25;;;19.90;99.90;;;;;;5063311;28;20500;-66
2022/08/07 10:07:12;;;;;;;4.68;2.60;;;20.00;99.90;;;;;;5051023;28;20043;-65
2022/08/07 10:09:55;;;;;;;6.70;3.67;;;20.10;99.90;;;;;;5049825;28;20041;-66
2022/08/07 10:12:33;;;;;;;4.25;3.30;;;20.20;99.90;;;;;;5041486;28;20128;-66
2022/08/07 10:15:20;;;;;;;5.32;3.40;;;20.40;99.90;;;;;;5037381;28;20106;-67
2022/08/07 10:18:14;;;;;;;4.53;2.92;;;20.40;99.90;;;;;;5041415;28;20029;-66
2022/08/07 10:21:01;;;;;;;5.55;3.15;;;20.60;99.90;;;;;;5047957;28;20047;-65
2022/08/07 10:23:56;;;;;;;4.78;3.10;;;20.60;99.90;;;;;;5030231;28;20045;-68
2022/08/07 10:26:59;;;;;;;3.95;2.83;;;20.60;99.90;;;;;;5053990;28;20057;-68
2022/08/07 10:29:45;;;;;;;6.03;2.85;;;20.80;99.90;;;;;;5059615;28;20080;-68
2022/08/07 10:32:41;;;;;;;4.72;2.28;;;20.90;99.90;;;;;;5051200;28;20072;-67
2022/08/07 10:35:43;;;;;;;2.88;2.35;;;21.00;99.90;;;;;;5050374;28;20094;-65
2022/08/07 10:38:38;;;;;;;3.83;2.45;;;21.00;99.90;;;;;;5052006;28;20041;-65
2022/08/07 10:41:19;;;;;;;3.05;2.25;;;21.00;99.90;;;;;;5061759;28;20037;-68
2022/08/07 10:44:01;;;;;;;4.28;2.63;;;21.00;98.70;;;;;;5050184;28;20037;-67
2022/08/07 10:46:34;;;;;;;4.10;2.30;;;21.20;99.90;;;;;;5051005;28;20571;-67
2022/08/07 10:49:21;;;;;;;3.53;2.50;;;21.30;99.90;;;;;;5050498;28;20076;-69
2022/08/07 10:51:56;;;;;;;4.95;2.67;;;21.40;98.90;;;;;;5045316;28;20144;-68
2022/08/07 10:54:43;;;;;;;3.85;2.70;;;21.30;99.10;;;;;;5051146;28;20060;-67
2022/08/07 10:57:23;;;;;;;3.97;2.90;;;21.20;99.40;;;;;;5066924;28;20067;-67
2022/08/07 11:00:02;;;;;;;9.75;3.08;;;21.20;99.90;;;;;;5049489;28;20119;-68
2022/08/07 11:02:49;;;;;;;3.60;2.60;;;21.30;99.90;;;;;;5051032;28;20053;-67
2022/08/07 11:05:35;;;;;;;5.53;2.50;;;21.30;99.90;;;;;;5049649;28;20105;-67
2022/08/07 11:08:22;;;;;;;5.18;2.65;;;21.30;98.00;;;;;;5043713;28;20029;-67
2022/08/07 11:10:58;;;;;;;3.95;2.58;;;21.40;99.70;;;;;;5050925;28;20432;-68
2022/08/07 11:13:48;;;;;;;3.08;2.30;;;21.50;99.90;;;;;;5048409;28;20049;-68
2022/08/07 11:16:35;;;;;;;4.25;2.53;;;21.60;99.90;;;;;;5050152;28;20069;-68
2022/08/07 11:19:22;;;;;;;3.03;2.50;;;21.70;99.60;;;;;;5051305;28;20041;-65
2022/08/07 11:21:55;;;;;;;4.40;3.05;;;21.70;98.60;;;;;;5050010;28;20037;-67
2022/08/07 11:24:46;;;;;;;2.70;2.40;;;21.60;98.00;;;;;;5049152;28;20465;-67
2022/08/07 11:27:17;;;;;;;5.28;2.65;;;21.50;99.00;;;;;;5049887;28;20064;-65
2022/08/07 11:29:57;;;;;;;5.80;2.65;;;21.60;98.10;;;;;;5048936;28;20029;-65
2022/08/07 11:32:50;;;;;;;5.15;2.90;;;21.60;96.00;;;;;;5044958;28;20552;-65
2022/08/07 11:35:28;;;;;;;4.68;2.80;;;21.50;98.80;;;;;;5032007;28;20049;-66
2022/08/07 11:38:30;;;;;;;4.72;2.72;;;21.60;99.90;;;;;;5046343;28;20049;-68
2022/08/07 11:41:04;;;;;;;4.53;2.60;;;21.70;98.90;;;;;;5021840;28;20509;-67
2022/08/07 11:43:41;;;;;;;2.85;2.42;;;21.70;99.90;;;;;;5053769;28;20308;-68
2022/08/07 11:46:16;;;;;;;4.25;2.60;;;21.80;99.20;;;;;;5047076;28;20037;-66
2022/08/07 11:49:03;;;;;;;6.72;3.13;;;21.80;99.10;;;;;;5050338;28;20057;-67
2022/08/07 11:51:47;;;;;;;3.10;2.50;;;22.00;99.90;;;;;;5039395;28;20129;-68
2022/08/07 11:54:32;;;;;;;3.28;2.90;;;22.10;99.40;;;;;;5049970;28;20519;-68
2022/08/07 11:57:19;;;;;;;5.45;3.00;;;22.20;99.60;;;;;;5045344;28;20047;-67
2022/08/07 12:00:05;;;;;;;3.33;2.80;;;22.20;97.20;;;;;;5048205;28;20044;-68
2022/08/07 12:03:12;;;;;;;3.92;2.70;;;22.20;99.90;;;;;;5065757;28;20451;-64
2022/08/07 12:06:07;;;;;;;17.98;2.58;;;22.20;95.30;;;;;;5045532;28;20103;-67
2022/08/07 12:08:39;;;;;;;4.10;2.53;;;22.10;94.80;;;;;;5049603;28;20471;-65
2022/08/07 12:11:17;;;;;;;2.45;2.05;;;22.00;94.30;;;;;;5052792;28;20036;-65
2022/08/07 12:13:52;;;;;;;3.55;2.53;;;22.00;96.10;;;;;;5052544;28;20091;-66
2022/08/07 12:16:27;;;;;;;3.67;2.40;;;22.00;98.10;;;;;;5051054;28;20047;-66
2022/08/07 12:18:53;;;;;;;3.05;2.33;;;22.10;99.70;;;;;;5059251;28;20050;-65
2022/08/07 12:21:44;;;;;;;4.05;2.67;;;22.20;97.70;;;;;;5044826;28;20041;-66
2022/08/07 12:24:20;;;;;;;2.92;2.15;;;22.30;94.90;;;;;;5048807;28;20387;-66
2022/08/07 12:27:02;;;;;;;3.03;2.20;;;22.30;97.30;;;;;;5058109;28;20048;-66
2022/08/07 12:29:34;;;;;;;3.55;1.95;;;22.30;96.90;;;;;;5055659;28;20040;-68
2022/08/07 12:32:06;;;;;;;3.38;2.17;;;22.30;95.60;;;;;;5056793;28;20149;-67
2022/08/07 12:34:39;;;;;;;3.38;2.10;;;22.40;95.30;;;;;;5046040;28;20044;-67
2022/08/07 12:37:07;;;;;;;4.20;2.00;;;22.50;97.50;;;;;;5050870;28;20036;-67
2022/08/07 12:39:35;;;;;;;2.80;2.60;;;22.60;94.90;;;;;;5058813;28;20041;-67
2022/08/07 12:42:04;;;;;;;3.88;2.80;;;22.60;98.70;;;;;;5048309;28;20033;-68
2022/08/07 12:44:33;;;;;;;3.47;2.72;;;22.70;97.30;;;;;;5048834;28;20045;-65
2022/08/07 12:47:37;;;;;;;4.43;2.53;;;22.70;97.10;;;;;;5052087;28;20138;-67
2022/08/07 12:50:43;;;;;;;7.68;3.45;;;22.70;97.60;;;;;;5052998;28;20404;-65
2022/08/07 12:53:27;;;;;;;4.18;3.00;;;22.80;99.90;;;;;;5043999;28;20083;-65
2022/08/07 12:56:22;;;;;;;4.40;3.35;;;22.80;98.60;;;;;;5054040;28;20063;-65
2022/08/07 12:58:50;;;;;;;4.13;3.05;;;22.60;97.70;;;;;;5051498;28;20044;-64
2022/08/07 13:01:52;;;;;;;4.38;3.50;;;22.40;97.30;;;;;;5053506;28;20052;-66
2022/08/07 13:04:45;;;;;;;4.25;3.40;;;22.30;99.20;;;;;;5051224;28;20369;-66
2022/08/07 13:07:48;;;;;;;8.50;3.60;;;22.10;99.70;;;;;;5054705;28;20041;-65
2022/08/07 13:10:31;;;;;;;4.93;3.80;;;21.80;99.90;;;;;;5068846;28;20041;-66
2022/08/07 13:13:07;;;;;;;5.22;3.42;;;21.60;99.90;;;;;;5054735;28;20036;-66
2022/08/07 13:16:02;;;;;;;6.40;3.80;;;21.70;99.90;;;;;;5065064;28;20408;-65
2022/08/07 13:18:56;;;;;;;4.03;3.47;;;21.90;99.90;;;;;;5054563;28;20049;-64
2022/08/07 13:21:33;;;;;;;5.30;3.80;;;21.80;99.90;;;;;;5035043;28;20045;-65
2022/08/07 13:24:07;;;;;;;5.40;3.88;;;21.50;99.90;;;;;;5051746;28;20102;-65
2022/08/07 13:26:44;;;;;;;6.18;3.67;;;21.40;99.90;;;;;;5041026;28;20049;-65